Time;durP1;ratioP1;P1;durP2;ratioP2;P2;SDS_P1;SDS_P2;PMS_P1;PMS_P2;Temp;Humidity;BMP_temperature;BMP_pressure;BME280_temperature;BME280_humidity;BME280_pressure;Samples;Min_cycle;Max_cycle;Signal;HPM_P1;HPM_P2
2023/01/14 00:00:04;;;;;;;18.45;3.33;;;7.70;99.90;;;;;;6317140;22;20011;-77
2023/01/14 00:03:42;;;;;;;20.77;3.22;;;6.70;99.90;;;;;;6174586;23;20088;-76
2023/01/14 00:06:59;;;;;;;14.48;2.88;;;6.90;99.90;;;;;;6194497;22;20021;-77
2023/01/14 00:09:45;;;;;;;24.17;3.58;;;6.00;99.90;;;;;;6294200;22;20305;-77
2023/01/14 00:12:29;;;;;;;25.13;4.40;;;7.30;99.90;;;;;;6269474;22;20466;-78
2023/01/14 00:15:21;;;;;;;20.20;4.55;;;7.90;99.90;;;;;;6266128;22;20297;-78
2023/01/14 00:17:55;;;;;;;;;;;7.40;99.90;;;;;;6296493;22;20073;-79
2023/01/14 00:21:01;;;;;;;20.10;3.83;;;7.10;99.90;;;;;;6293635;22;19906;-77
2023/01/14 00:23:28;;;;;;;23.65;3.17;;;7.50;99.90;;;;;;6278448;22;20070;-77
2023/01/14 00:26:00;;;;;;;19.00;3.72;;;7.30;99.90;;;;;;6317643;22;20213;-77
2023/01/14 00:28:26;;;;;;;15.73;3.92;;;7.50;99.90;;;;;;6315830;22;20007;-77
2023/01/14 00:30:52;;;;;;;16.15;2.90;;;7.50;99.90;;;;;;6317733;22;20003;-77
2023/01/14 00:33:18;;;;;;;20.10;3.65;;;7.00;99.90;;;;;;6292324;22;20007;-76
2023/01/14 00:35:52;;;;;;;18.35;3.17;;;7.60;99.90;;;;;;6290658;22;20047;-77
2023/01/14 00:38:17;;;;;;;20.97;3.20;;;6.90;99.90;;;;;;6265749;22;20022;-76
2023/01/14 00:40:43;;;;;;;13.57;3.97;;;7.00;99.90;;;;;;6316553;22;20052;-77
2023/01/14 00:43:09;;;;;;;16.50;2.80;;;7.40;99.90;;;;;;6291963;22;20011;-76
2023/01/14 00:45:34;;;;;;;15.88;3.03;;;6.80;99.90;;;;;;6289888;22;20019;-77
2023/01/14 00:48:00;;;;;;;17.50;3.47;;;6.90;99.90;;;;;;6260326;22;20023;-77
2023/01/14 00:50:26;;;;;;;13.23;3.72;;;7.40;99.90;;;;;;6234410;22;20033;-77
2023/01/14 00:52:51;;;;;;;15.77;3.00;;;6.70;99.90;;;;;;6235179;22;20037;-77
2023/01/14 00:55:17;;;;;;;21.85;3.17;;;6.80;99.90;;;;;;6234430;22;20011;-77
2023/01/14 00:58:16;;;;;;;24.77;3.38;;;7.30;99.90;;;;;;6234643;22;20019;-77
2023/01/14 01:00:54;;;;;;;13.68;2.78;;;7.00;99.90;;;;;;6248661;22;20011;-80
2023/01/14 01:14:40;;;;;;;15.73;2.83;;;8.90;99.90;;;;;;6117918;23;20305;-77
2023/01/14 01:17:39;;;;;;;;;;;;;;;;;;;;;
2023/01/14 01:23:18;;;;;;;18.90;3.35;;;7.20;99.90;;;;;;6175990;23;20024;-76
2023/01/14 01:25:49;;;;;;;14.93;3.22;;;7.20;99.90;;;;;;6166777;23;20056;-76
2023/01/14 01:28:17;;;;;;;18.40;2.83;;;7.00;99.90;;;;;;6145540;23;20059;-76
2023/01/14 01:30:43;;;;;;;15.00;3.10;;;6.80;99.90;;;;;;6166770;23;20067;-77
2023/01/14 01:33:09;;;;;;;17.98;3.00;;;7.10;99.90;;;;;;6144307;23;20008;-77
2023/01/14 01:35:34;;;;;;;15.48;3.45;;;6.90;99.90;;;;;;6168154;23;20027;-77
2023/01/14 01:38:02;;;;;;;15.57;3.13;;;7.50;99.90;;;;;;6119826;23;20242;-77
2023/01/14 01:40:28;;;;;;;13.70;2.90;;;7.20;99.90;;;;;;6169475;23;20013;-77
2023/01/14 01:42:54;;;;;;;13.75;3.35;;;7.10;99.90;;;;;;6143045;23;20112;-76
2023/01/14 01:45:48;;;;;;;9.52;2.20;;;7.30;99.90;;;;;;6182793;22;20019;-77
2023/01/14 01:48:44;;;;;;;15.27;3.08;;;7.00;99.90;;;;;;6217590;23;20024;-76
2023/01/14 01:51:18;;;;;;;14.15;3.20;;;6.80;99.90;;;;;;6262676;22;20011;-76
2023/01/14 01:53:48;;;;;;;13.77;3.00;;;8.80;99.90;;;;;;6259881;22;20015;-78
2023/01/14 01:56:24;;;;;;;8.55;2.20;;;7.10;99.90;;;;;;6285574;22;20061;-78
2023/01/14 01:59:22;;;;;;;15.38;2.70;;;7.30;99.90;;;;;;6259387;22;20019;-78
2023/01/14 02:01:49;;;;;;;15.77;2.38;;;7.10;99.90;;;;;;6251729;22;20025;-77
2023/01/14 02:04:17;;;;;;;15.95;2.20;;;6.90;99.90;;;;;;6234208;22;20070;-78
2023/01/14 02:06:50;;;;;;;13.77;2.58;;;7.00;99.90;;;;;;6233162;22;20023;-78
2023/01/14 02:09:19;;;;;;;24.98;3.67;;;6.40;99.90;;;;;;6260464;22;20102;-78
2023/01/14 02:12:00;;;;;;;17.67;2.90;;;6.70;99.90;;;;;;6259426;22;20379;-78
2023/01/14 02:14:55;;;;;;;15.65;3.20;;;6.40;99.90;;;;;;6260700;22;20067;-77
2023/01/14 02:17:45;;;;;;;11.45;2.47;;;6.20;99.90;;;;;;6283046;22;20019;-78
2023/01/14 02:20:33;;;;;;;14.63;3.10;;;6.30;99.90;;;;;;6285710;22;20350;-77
2023/01/14 02:23:36;;;;;;;14.77;2.85;;;6.40;99.90;;;;;;6259613;22;20019;-76
2023/01/14 02:26:39;;;;;;;17.83;2.85;;;6.90;99.90;;;;;;6223512;23;20226;-77
2023/01/14 02:29:19;;;;;;;23.95;3.65;;;6.40;99.90;;;;;;6286499;22;20007;-77
2023/01/14 02:31:54;;;;;;;18.50;2.90;;;6.60;99.90;;;;;;6258939;22;20015;-76
2023/01/14 02:34:44;;;;;;;11.27;2.75;;;6.90;99.90;;;;;;6260229;22;20053;-76
2023/01/14 02:37:25;;;;;;;17.08;2.80;;;6.60;99.90;;;;;;6285582;22;20015;-77
2023/01/14 02:40:06;;;;;;;16.02;3.55;;;6.40;99.90;;;;;;6285294;22;20007;-77
2023/01/14 02:45:46;;;;;;;17.95;3.20;;;6.40;99.90;;;;;;6284365;22;20442;-77
2023/01/14 02:48:14;;;;;;;14.45;3.17;;;6.80;99.90;;;;;;6303250;22;20128;-77
2023/01/14 02:50:40;;;;;;;21.42;3.28;;;6.60;99.90;;;;;;6309125;22;20417;-77
2023/01/14 02:53:17;;;;;;;12.25;3.17;;;6.80;99.90;;;;;;6284019;22;20007;-76
2023/01/14 02:55:42;;;;;;;18.23;3.30;;;6.70;99.90;;;;;;6309239;22;20019;-77
2023/01/14 02:58:57;;;;;;;14.35;2.85;;;6.30;99.90;;;;;;6308780;22;20014;-77
2023/01/14 03:01:23;;;;;;;20.23;3.10;;;6.30;99.90;;;;;;6226676;22;20015;-78
2023/01/14 03:03:54;;;;;;;20.40;3.40;;;6.70;99.90;;;;;;6284974;22;20074;-77
2023/01/14 03:06:38;;;;;;;16.73;3.08;;;6.30;99.90;;;;;;6310308;22;20027;-77
2023/01/14 03:09:10;;;;;;;15.35;2.60;;;6.30;99.90;;;;;;6308906;22;20019;-77
2023/01/14 03:11:55;;;;;;;15.73;3.13;;;6.40;99.90;;;;;;6310215;22;20042;-76
2023/01/14 03:14:30;;;;;;;14.50;2.40;;;5.50;99.90;;;;;;6312279;22;20015;-77
2023/01/14 03:17:17;;;;;;;18.05;3.40;;;6.40;99.90;;;;;;6309523;22;20018;-77
2023/01/14 03:20:04;;;;;;;20.83;3.00;;;6.20;99.90;;;;;;6284987;22;20029;-77
2023/01/14 03:22:41;;;;;;;21.15;4.50;;;6.60;99.90;;;;;;6311577;22;20017;-78
2023/01/14 03:25:10;;;;;;;21.15;2.97;;;6.00;99.90;;;;;;6286318;22;20019;-77
2023/01/14 03:27:38;;;;;;;15.50;2.65;;;5.90;99.90;;;;;;6259647;22;20014;-77
2023/01/14 03:30:15;;;;;;;19.77;2.60;;;6.20;99.90;;;;;;6310894;22;20012;-77
2023/01/14 03:32:54;;;;;;;17.45;3.58;;;6.40;99.90;;;;;;6285145;22;20035;-78
2023/01/14 03:36:12;;;;;;;20.17;3.00;;;6.00;99.90;;;;;;6286250;22;20293;-78
2023/01/14 03:39:01;;;;;;;19.35;3.25;;;6.40;99.90;;;;;;6072218;23;20022;-79
2023/01/14 03:45:14;;;;;;;17.00;3.00;;;6.00;99.90;;;;;;6141131;23;20017;-79
2023/01/14 03:47:41;;;;;;;22.58;3.28;;;6.50;99.90;;;;;;6132813;23;20216;-77
2023/01/14 03:50:18;;;;;;;13.50;2.47;;;6.10;99.90;;;;;;6179712;23;20017;-79
2023/01/14 03:53:01;;;;;;;16.90;2.65;;;8.30;99.90;;;;;;6192587;23;20023;-79
2023/01/14 03:55:45;;;;;;;16.27;2.38;;;5.90;99.90;;;;;;6193557;23;20012;-78
2023/01/14 03:58:38;;;;;;;;;;;;;;;;;;;;;
2023/01/14 04:01:43;;;;;;;16.60;3.80;;;6.30;99.90;;;;;;6193977;23;20012;-78
2023/01/14 04:04:10;;;;;;;14.07;2.97;;;6.30;99.90;;;;;;6193061;23;20299;-77
2023/01/14 04:07:07;;;;;;;;;;;;;;;;;;;;;
2023/01/14 04:16:56;;;;;;;19.83;3.30;;;6.10;99.90;;;;;;6284068;22;20075;-77
2023/01/14 04:19:22;;;;;;;14.75;2.60;;;7.20;99.90;;;;;;6260748;22;20011;-77
2023/01/14 04:21:48;;;;;;;24.60;4.22;;;6.20;99.90;;;;;;6261985;22;20017;-77
2023/01/14 04:24:13;;;;;;;12.82;2.67;;;5.90;99.90;;;;;;6261937;22;20030;-77
2023/01/14 04:26:39;;;;;;;17.42;2.72;;;6.20;99.90;;;;;;6286672;22;20070;-76
2023/01/14 04:29:05;;;;;;;19.88;3.03;;;6.00;99.90;;;;;;6260646;22;20034;-76
2023/01/14 04:31:31;;;;;;;17.33;2.67;;;6.20;99.90;;;;;;6236910;22;20038;-76
2023/01/14 04:33:56;;;;;;;16.85;3.60;;;5.90;99.90;;;;;;6236027;22;20064;-76
2023/01/14 04:36:22;;;;;;;19.73;2.80;;;6.00;99.90;;;;;;6261896;22;20011;-77
2023/01/14 04:38:47;;;;;;;13.10;2.55;;;5.70;99.90;;;;;;6286283;22;20023;-76
2023/01/14 04:43:59;;;;;;;13.35;2.70;;;5.70;99.90;;;;;;6286845;22;20088;-76
2023/01/14 04:46:25;;;;;;;18.40;3.17;;;6.00;99.90;;;;;;6236356;22;20011;-76
2023/01/14 04:48:50;;;;;;;20.13;3.30;;;5.70;99.90;;;;;;6265892;22;20029;-76
2023/01/14 04:51:16;;;;;;;17.98;2.92;;;5.70;99.90;;;;;;6292356;22;20007;-77
2023/01/14 04:53:42;;;;;;;15.40;3.45;;;5.80;99.90;;;;;;6292431;22;20032;-77
2023/01/14 04:56:45;;;;;;;15.77;3.38;;;6.30;99.90;;;;;;6290383;22;20078;-77
2023/01/14 05:00:27;;;;;;;14.07;3.22;;;5.60;99.90;;;;;;6289682;22;20018;-78
2023/01/14 05:03:07;;;;;;;13.77;3.10;;;5.40;99.90;;;;;;6132226;22;20021;-78
2023/01/14 05:05:33;;;;;;;12.25;2.30;;;4.00;99.90;;;;;;6291835;22;20010;-78
2023/01/14 05:07:59;;;;;;;14.45;2.30;;;6.00;99.90;;;;;;6266871;22;20197;-78
2023/01/14 05:10:26;;;;;;;18.00;2.67;;;6.00;99.90;;;;;;6291110;22;20003;-78
2023/01/14 05:12:58;;;;;;;13.57;2.40;;;7.00;99.90;;;;;;6291517;22;20240;-76
2023/01/14 05:15:28;;;;;;;16.15;2.30;;;5.70;99.90;;;;;;6317831;22;20178;-77
2023/01/14 05:17:54;;;;;;;19.10;2.78;;;6.10;99.90;;;;;;6291157;22;20011;-77
2023/01/14 05:20:21;;;;;;;15.82;2.60;;;5.70;99.90;;;;;;6291062;22;20030;-77
2023/01/14 05:26:44;;;;;;;10.43;2.50;;;6.70;99.90;;;;;;6187043;23;20104;-78
2023/01/14 05:29:09;;;;;;;17.52;2.97;;;6.10;99.90;;;;;;6139684;23;20012;-78
2023/01/14 05:31:35;;;;;;;20.13;3.28;;;6.00;99.90;;;;;;6167972;22;20041;-78
2023/01/14 05:34:30;;;;;;;15.27;2.95;;;6.10;99.90;;;;;;6291634;22;20014;-79
2023/01/14 05:36:57;;;;;;;15.38;2.67;;;5.70;99.90;;;;;;6290786;22;20011;-78
2023/01/14 05:39:31;;;;;;;11.57;2.20;;;4.20;99.90;;;;;;6293665;22;20060;-78
2023/01/14 05:47:34;;;;;;;14.70;2.65;;;6.10;99.90;;;;;;6279107;22;20054;-78
2023/01/14 05:50:02;;;;;;;12.15;2.63;;;5.80;99.90;;;;;;6235840;22;20048;-78
2023/01/14 05:52:28;;;;;;;20.05;4.13;;;6.10;99.90;;;;;;6284699;22;20321;-78
2023/01/14 05:54:54;;;;;;;16.10;3.97;;;5.60;99.90;;;;;;6234948;22;20022;-77
2023/01/14 05:57:48;;;;;;;21.40;3.90;;;6.20;99.90;;;;;;6234142;22;20205;-77
2023/01/14 06:08:32;;;;;;;15.85;3.08;;;6.10;99.90;;;;;;6286440;22;20063;-77
2023/01/14 06:10:59;;;;;;;22.58;4.15;;;5.80;99.90;;;;;;6283598;22;20007;-76
2023/01/14 06:13:38;;;;;;;19.52;3.20;;;6.10;99.90;;;;;;6285433;22;20007;-77
2023/01/14 06:16:07;;;;;;;13.93;3.13;;;5.80;99.90;;;;;;6236517;22;20052;-78
2023/01/14 06:18:43;;;;;;;15.27;4.13;;;6.20;99.90;;;;;;6236771;22;20061;-78
2023/01/14 06:21:11;;;;;;;19.30;3.65;;;5.80;99.90;;;;;;6258896;22;20078;-77
2023/01/14 06:23:37;;;;;;;20.45;3.88;;;6.30;99.90;;;;;;6285928;22;20018;-77
2023/01/14 06:26:04;;;;;;;14.57;3.05;;;6.20;99.90;;;;;;6259697;22;20245;-78
2023/01/14 06:28:29;;;;;;;13.35;3.22;;;5.80;99.90;;;;;;6285646;22;20313;-77
2023/01/14 06:30:55;;;;;;;13.00;2.97;;;6.30;99.90;;;;;;6233658;22;20021;-76
2023/01/14 06:33:22;;;;;;;13.45;3.25;;;5.90;99.90;;;;;;6233186;22;20143;-77
2023/01/14 06:35:49;;;;;;;11.57;3.20;;;6.10;99.90;;;;;;6258960;22;20042;-77
2023/01/14 06:38:15;;;;;;;13.13;2.83;;;5.70;99.90;;;;;;6232754;22;20097;-78
2023/01/14 06:40:41;;;;;;;15.23;4.00;;;5.80;99.90;;;;;;6284022;22;20305;-76
2023/01/14 06:43:08;;;;;;;18.67;4.05;;;6.00;99.90;;;;;;6231385;22;20092;-78
2023/01/14 06:45:36;;;;;;;19.10;4.97;;;6.00;99.90;;;;;;6258385;22;20038;-78
2023/01/14 06:48:02;;;;;;;15.13;3.65;;;6.00;99.90;;;;;;6250718;22;20076;-77
2023/01/14 06:50:52;;;;;;;17.33;4.93;;;5.70;99.90;;;;;;6289022;22;20119;-77
2023/01/14 06:53:19;;;;;;;28.00;6.60;;;5.00;99.90;;;;;;6269282;22;20046;-78
2023/01/14 06:55:45;;;;;;;21.98;5.72;;;6.20;99.90;;;;;;6314802;22;20043;-77
2023/01/14 06:58:11;;;;;;;17.10;5.72;;;6.30;99.90;;;;;;6287587;22;20297;-77
2023/01/14 07:00:37;;;;;;;18.63;5.55;;;6.00;99.90;;;;;;6288686;22;20010;-78
2023/01/14 07:03:06;;;;;;;30.13;6.20;;;5.70;99.90;;;;;;6310589;22;20018;-77
2023/01/14 07:05:34;;;;;;;27.10;5.95;;;8.50;99.90;;;;;;6264259;22;20011;-77
2023/01/14 07:08:00;;;;;;;22.25;6.63;;;6.70;99.90;;;;;;6288407;22;20006;-78
2023/01/14 07:10:26;;;;;;;19.90;4.95;;;5.90;99.90;;;;;;6288783;22;20403;-78
2023/01/14 07:12:52;;;;;;;22.73;6.05;;;5.80;99.90;;;;;;6263883;22;20013;-79
2023/01/14 07:15:22;;;;;;;15.07;5.57;;;6.10;99.90;;;;;;6290746;22;20019;-79
2023/01/14 07:17:49;;;;;;;20.88;6.05;;;6.10;99.90;;;;;;6314289;22;20046;-78
2023/01/14 07:20:15;;;;;;;25.08;6.78;;;5.80;99.90;;;;;;6314573;22;20222;-78
2023/01/14 07:22:41;;;;;;;19.95;6.03;;;6.10;99.90;;;;;;6289848;22;20066;-78
2023/01/14 07:25:17;;;;;;;24.73;5.82;;;6.20;99.90;;;;;;6289282;22;20007;-77
2023/01/14 07:27:43;;;;;;;23.85;6.53;;;6.30;99.90;;;;;;6290965;22;20062;-78
2023/01/14 07:30:09;;;;;;;24.52;6.00;;;6.40;99.90;;;;;;6315913;22;20007;-78
2023/01/14 07:32:35;;;;;;;22.92;6.00;;;5.90;99.90;;;;;;6290399;22;20069;-77
2023/01/14 07:35:01;;;;;;;26.90;5.10;;;6.30;99.90;;;;;;6315106;22;20025;-77
2023/01/14 07:37:26;;;;;;;26.10;6.88;;;6.40;99.90;;;;;;6288091;22;20007;-77
2023/01/14 07:39:55;;;;;;;21.88;4.43;;;6.40;99.90;;;;;;6261930;22;20010;-77
2023/01/14 07:42:20;;;;;;;20.00;5.15;;;6.40;99.90;;;;;;6263074;22;20042;-79
2023/01/14 07:44:48;;;;;;;21.50;4.47;;;6.40;99.90;;;;;;6263510;22;20240;-78
2023/01/14 07:47:18;;;;;;;24.80;5.32;;;6.40;99.90;;;;;;6259551;22;20043;-77
2023/01/14 07:49:43;;;;;;;23.98;5.32;;;6.00;99.90;;;;;;6286243;22;20076;-77
2023/01/14 07:52:12;;;;;;;25.50;5.72;;;6.40;99.90;;;;;;6287264;22;20007;-78
2023/01/14 07:54:40;;;;;;;26.45;4.55;;;6.00;99.90;;;;;;6261473;22;20034;-77
2023/01/14 07:57:10;;;;;;;24.08;4.60;;;6.50;99.90;;;;;;6259492;22;20023;-76
2023/01/14 07:59:36;;;;;;;27.60;5.30;;;6.50;99.90;;;;;;6235058;22;20056;-80
2023/01/14 08:02:02;;;;;;;29.45;6.15;;;6.00;99.90;;;;;;6284901;22;20019;-79
2023/01/14 08:04:28;;;;;;;18.63;4.82;;;6.20;99.90;;;;;;6259276;22;20021;-78
2023/01/14 08:06:56;;;;;;;22.65;5.03;;;6.50;99.90;;;;;;6233676;22;20023;-79
2023/01/14 08:09:22;;;;;;;20.02;4.78;;;6.20;99.90;;;;;;6258029;22;20007;-78
2023/01/14 08:11:48;;;;;;;27.13;5.60;;;6.50;99.90;;;;;;6234477;22;20049;-77
2023/01/14 08:14:59;;;;;;;22.30;5.45;;;6.40;99.90;;;;;;6283158;22;20357;-76
2023/01/14 08:17:06;;;;;;;19.48;4.80;;;6.30;99.90;;;;;;6248902;22;20019;-74
2023/01/14 08:19:31;;;;;;;16.40;4.63;;;7.90;99.90;;;;;;6257893;22;20019;-78
2023/01/14 08:21:57;;;;;;;19.67;5.60;;;6.70;99.90;;;;;;6285793;22;20083;-80
2023/01/14 08:24:23;;;;;;;16.10;3.88;;;6.60;99.90;;;;;;6234152;22;20042;-78
2023/01/14 08:26:48;;;;;;;18.70;5.90;;;6.20;99.90;;;;;;6231765;22;20007;-78
2023/01/14 08:29:17;;;;;;;18.95;4.38;;;6.60;99.90;;;;;;6284434;22;20023;-77
2023/01/14 08:32:37;;;;;;;24.70;5.63;;;6.50;99.90;;;;;;6259451;22;20034;-78
2023/01/14 08:35:05;;;;;;;13.35;3.45;;;6.60;99.90;;;;;;6259370;22;20404;-78
2023/01/14 08:37:34;;;;;;;19.67;4.25;;;6.30;99.90;;;;;;6261890;22;20133;-77
2023/01/14 08:40:19;;;;;;;;;;;;;;;;;;;;;
2023/01/14 08:46:48;;;;;;;11.27;3.67;;;6.40;99.90;;;;;;6243612;22;20116;-75
2023/01/14 09:17:09;;;;;;;21.55;5.68;;;6.60;99.90;;;;;;6314123;22;20010;-77
2023/01/14 09:19:52;;;;;;;19.25;3.90;;;6.70;99.90;;;;;;6266261;22;20034;-76
2023/01/14 09:22:23;;;;;;;16.05;4.30;;;6.20;99.90;;;;;;6288948;22;20025;-76
2023/01/14 09:24:50;;;;;;;13.00;4.13;;;6.60;99.90;;;;;;6289043;22;20060;-77
2023/01/14 09:27:18;;;;;;;19.40;3.55;;;6.80;99.90;;;;;;6287748;22;20048;-77
2023/01/14 09:29:44;;;;;;;15.13;3.92;;;6.60;99.90;;;;;;6313165;22;20007;-77
2023/01/14 09:32:11;;;;;;;23.58;4.85;;;6.90;99.90;;;;;;6313817;22;20267;-80
2023/01/14 09:34:49;;;;;;;14.95;3.08;;;6.40;99.90;;;;;;6288021;22;20014;-78
2023/01/14 09:37:19;;;;;;;17.13;3.75;;;6.80;99.90;;;;;;6288560;22;20233;-79
2023/01/14 09:39:45;;;;;;;18.52;3.53;;;6.40;99.90;;;;;;6289008;22;20075;-79
2023/01/14 09:42:23;;;;;;;19.55;4.25;;;6.40;99.90;;;;;;6314357;22;20021;-77
2023/01/14 09:44:51;;;;;;;7.70;2.58;;;6.80;99.90;;;;;;6288085;22;20015;-80
2023/01/14 09:47:22;;;;;;;20.10;4.32;;;6.60;99.90;;;;;;6256991;22;20015;-76
2023/01/14 09:49:51;;;;;;;18.73;4.85;;;6.50;99.90;;;;;;6259415;22;20309;-78
2023/01/14 09:52:17;;;;;;;14.57;3.80;;;6.80;99.90;;;;;;6283555;22;20018;-78
2023/01/14 09:54:42;;;;;;;17.65;4.18;;;6.90;99.90;;;;;;6283488;22;20041;-78
2023/01/14 09:57:42;;;;;;;20.08;4.50;;;6.80;99.90;;;;;;6258519;22;20068;-79
2023/01/14 10:00:31;;;;;;;16.27;4.18;;;6.60;99.90;;;;;;6260554;22;20011;-78
2023/01/14 10:03:09;;;;;;;12.38;3.00;;;6.90;99.90;;;;;;6284336;22;20194;-78
2023/01/14 10:05:39;;;;;;;9.07;3.17;;;6.80;99.90;;;;;;6259498;22;20074;-78
2023/01/14 10:08:11;;;;;;;15.77;3.58;;;6.90;99.90;;;;;;6286006;22;20042;-76
2023/01/14 10:10:41;;;;;;;13.63;3.58;;;6.80;99.90;;;;;;6284582;22;20116;-78
2023/01/14 10:13:25;;;;;;;12.02;3.20;;;6.80;99.90;;;;;;6259752;22;20160;-79
2023/01/14 10:16:24;;;;;;;14.07;2.70;;;6.80;99.90;;;;;;6260505;22;20018;-76
2023/01/14 10:19:05;;;;;;;8.32;2.55;;;7.20;99.90;;;;;;6180805;22;20011;-79
2023/01/14 10:21:45;;;;;;;12.50;3.08;;;7.00;99.90;;;;;;6258506;22;20011;-74
2023/01/14 10:24:16;;;;;;;8.60;2.40;;;6.80;99.90;;;;;;6280387;22;20051;-79
2023/01/14 10:26:44;;;;;;;9.40;2.28;;;6.90;99.90;;;;;;6257880;22;20019;-77
2023/01/14 10:29:19;;;;;;;10.73;2.60;;;7.10;99.90;;;;;;6284365;22;20034;-78
2023/01/14 10:31:47;;;;;;;;;;;7.10;99.90;;;;;;6258876;22;20007;-77
2023/01/14 10:34:24;;;;;;;6.80;2.17;;;7.00;99.90;;;;;;6257606;22;20197;-77
2023/01/14 10:36:50;;;;;;;7.25;2.50;;;7.00;99.90;;;;;;6284005;22;20262;-78
2023/01/14 10:39:16;;;;;;;6.43;1.85;;;7.20;99.90;;;;;;6256661;22;20019;-78
2023/01/14 10:41:51;;;;;;;10.75;2.65;;;7.10;99.90;;;;;;6259235;22;20042;-78
2023/01/14 10:44:39;;;;;;;9.35;2.67;;;7.30;99.90;;;;;;6282225;22;20015;-77
2023/01/14 10:47:12;;;;;;;8.25;2.38;;;7.30;99.90;;;;;;6283789;22;20402;-77
2023/01/14 10:49:44;;;;;;;4.68;1.30;;;7.20;99.90;;;;;;6311769;22;20018;-80
2023/01/14 10:52:26;;;;;;;8.00;2.00;;;7.20;99.90;;;;;;6312481;22;20066;-77
2023/01/14 10:55:31;;;;;;;3.28;1.33;;;7.20;99.90;;;;;;6286985;22;20006;-78
2023/01/14 10:58:06;;;;;;;5.78;1.77;;;7.30;99.90;;;;;;6313077;22;20082;-78
2023/01/14 11:00:37;;;;;;;7.00;2.22;;;7.40;99.90;;;;;;6312781;22;20021;-78
2023/01/14 11:03:20;;;;;;;4.65;1.92;;;7.30;99.90;;;;;;6286662;22;20011;-79
2023/01/14 11:06:06;;;;;;;3.15;1.38;;;7.60;99.90;;;;;;6312815;22;20019;-78
2023/01/14 11:08:47;;;;;;;3.50;2.00;;;7.60;99.90;;;;;;6287591;22;20026;-77
2023/01/14 11:11:25;;;;;;;5.18;2.05;;;7.60;99.90;;;;;;6312972;22;20166;-78
2023/01/14 11:13:53;;;;;;;3.33;1.73;;;7.50;99.90;;;;;;6287334;22;20013;-77
2023/01/14 11:16:24;;;;;;;7.70;2.38;;;7.70;99.90;;;;;;6286036;22;20026;-79
2023/01/14 11:18:55;;;;;;;6.13;2.47;;;7.50;99.90;;;;;;6287689;22;20064;-77
2023/01/14 11:21:22;;;;;;;3.60;1.30;;;7.70;99.90;;;;;;6314192;22;20017;-78
2023/01/14 11:24:07;;;;;;;;;;;;;;;;;;;;;
2023/01/14 11:27:03;;;;;;;5.88;2.08;;;7.60;99.90;;;;;;6315784;22;20301;-78
2023/01/14 11:29:32;;;;;;;4.18;1.80;;;7.50;99.90;;;;;;6290249;22;20006;-76
2023/01/14 11:32:04;;;;;;;4.72;2.20;;;7.50;99.90;;;;;;6291190;22;20026;-78
2023/01/14 11:34:35;;;;;;;2.13;1.33;;;7.70;99.90;;;;;;6316297;22;20041;-77
2023/01/14 11:37:35;;;;;;;3.13;2.00;;;7.80;99.90;;;;;;6289682;22;20227;-76
2023/01/14 11:40:02;;;;;;;5.80;2.17;;;7.60;99.90;;;;;;6314672;22;20014;-77
2023/01/14 11:42:34;;;;;;;3.83;1.75;;;7.50;99.90;;;;;;6264617;22;20194;-76
2023/01/14 11:45:14;;;;;;;4.70;2.30;;;7.60;99.90;;;;;;6315702;22;20018;-76
2023/01/14 11:47:57;;;;;;;6.20;2.45;;;7.60;99.90;;;;;;6285556;22;20021;-78
2023/01/14 11:50:23;;;;;;;2.58;1.92;;;7.80;99.90;;;;;;6285738;22;20136;-76
2023/01/14 11:53:02;;;;;;;6.22;2.25;;;7.70;99.90;;;;;;6285033;22;20007;-78
2023/01/14 11:55:37;;;;;;;5.47;1.92;;;7.70;99.90;;;;;;6285685;22;20404;-78
2023/01/14 11:58:26;;;;;;;2.75;1.80;;;7.80;99.90;;;;;;6286109;22;20098;-79
2023/01/14 12:00:56;;;;;;;4.07;1.90;;;7.70;99.90;;;;;;6286569;22;20070;-77
2023/01/14 12:03:55;;;;;;;4.53;1.92;;;7.90;99.90;;;;;;6285749;22;20175;-79
2023/01/14 12:06:26;;;;;;;3.63;1.90;;;7.70;99.90;;;;;;6311146;22;20069;-76
2023/01/14 12:09:01;;;;;;;6.05;2.60;;;7.70;99.90;;;;;;6311056;22;20007;-77
2023/01/14 12:11:42;;;;;;;6.45;2.03;;;8.00;99.90;;;;;;6310940;22;20022;-76
2023/01/14 12:17:22;;;;;;;;;;;8.00;99.90;;;;;;6254779;22;20011;-77
2023/01/14 12:20:11;;;;;;;3.97;1.70;;;7.90;99.90;;;;;;6311351;22;19926;-76
2023/01/14 12:22:54;;;;;;;3.25;2.00;;;7.90;99.90;;;;;;6284225;22;20015;-78
2023/01/14 12:25:24;;;;;;;5.05;1.95;;;8.00;99.90;;;;;;6285737;22;20022;-77
2023/01/14 12:28:01;;;;;;;2.95;1.63;;;8.00;99.90;;;;;;6285978;22;20022;-77
2023/01/14 12:30:55;;;;;;;3.05;1.48;;;7.90;99.90;;;;;;6284419;22;20195;-78
2023/01/14 12:33:33;;;;;;;3.22;1.33;;;8.40;99.90;;;;;;6285525;22;20019;-79
2023/01/14 12:36:29;;;;;;;2.72;1.83;;;8.00;99.90;;;;;;6286319;22;20076;-80
2023/01/14 12:47:28;;;;;;;3.25;1.50;;;8.40;99.90;;;;;;6308975;22;20395;-78
2023/01/14 12:49:54;;;;;;;3.45;1.73;;;8.20;99.90;;;;;;6282630;22;20015;-77
2023/01/14 12:52:29;;;;;;;3.72;1.30;;;8.20;99.90;;;;;;6309413;22;20044;-76
2023/01/14 12:54:56;;;;;;;1.98;1.27;;;8.40;99.90;;;;;;6309606;22;20011;-77
2023/01/14 12:57:24;;;;;;;4.88;1.50;;;9.20;99.90;;;;;;6258251;22;20026;-79
2023/01/14 13:00:05;;;;;;;4.03;1.63;;;8.50;99.90;;;;;;6258291;22;20019;-77
2023/01/14 13:02:36;;;;;;;4.10;1.80;;;8.50;99.90;;;;;;6307678;22;20087;-79
2023/01/14 13:05:27;;;;;;;2.55;1.38;;;8.50;99.90;;;;;;6310341;22;20070;-78
2023/01/14 13:08:01;;;;;;;1.98;1.27;;;8.60;99.90;;;;;;6262438;22;20071;-78
2023/01/14 13:10:32;;;;;;;2.70;1.50;;;8.50;99.90;;;;;;6283277;22;20011;-78
2023/01/14 13:13:00;;;;;;;3.38;1.58;;;8.50;99.90;;;;;;6282334;22;20056;-77
2023/01/14 13:15:34;;;;;;;2.10;1.58;;;8.60;99.90;;;;;;6309046;22;20048;-77
2023/01/14 13:18:58;;;;;;;3.20;1.42;;;8.70;99.90;;;;;;6310340;22;20085;-79
2023/01/14 13:22:00;;;;;;;3.30;1.50;;;8.60;99.90;;;;;;6309248;22;20022;-77
2023/01/14 13:24:47;;;;;;;2.85;1.58;;;8.70;99.90;;;;;;6282585;22;20075;-78
2023/01/14 13:27:40;;;;;;;5.15;2.55;;;8.70;99.90;;;;;;6283321;22;20023;-78
2023/01/14 13:30:18;;;;;;;4.75;2.22;;;9.00;99.90;;;;;;6276658;22;20015;-79
2023/01/14 13:32:50;;;;;;;2.40;1.77;;;8.80;99.90;;;;;;6310465;22;20126;-78
2023/01/14 13:35:28;;;;;;;4.30;1.95;;;9.10;99.90;;;;;;6310521;22;20020;-77
2023/01/14 13:37:57;;;;;;;2.35;1.80;;;7.30;99.90;;;;;;6285132;22;20088;-78
2023/01/14 13:40:26;;;;;;;3.40;1.55;;;9.20;99.90;;;;;;6311149;22;20036;-77
2023/01/14 13:43:03;;;;;;;2.35;1.73;;;9.00;99.90;;;;;;6311223;22;20019;-77
2023/01/14 13:45:31;;;;;;;2.70;1.92;;;9.20;99.90;;;;;;6308424;22;20041;-77
2023/01/14 13:48:11;;;;;;;4.22;1.77;;;9.40;99.90;;;;;;6274186;22;20020;-77
2023/01/14 13:50:40;;;;;;;3.65;2.13;;;9.10;99.90;;;;;;6256369;22;20210;-76
2023/01/14 13:53:26;;;;;;;3.75;2.08;;;9.20;99.90;;;;;;6256383;22;20015;-77
2023/01/14 13:56:02;;;;;;;2.92;1.80;;;9.30;99.90;;;;;;6258506;22;20047;-76
2023/01/14 13:58:48;;;;;;;2.55;1.70;;;9.30;99.90;;;;;;6281787;22;20089;-77
2023/01/14 14:01:31;;;;;;;2.90;2.15;;;9.40;99.90;;;;;;6256409;22;20015;-76
2023/01/14 14:04:01;;;;;;;2.95;1.77;;;9.70;99.90;;;;;;6256860;22;20011;-78
2023/01/14 14:06:28;;;;;;;2.83;1.40;;;9.70;99.90;;;;;;6256419;22;20060;-77
2023/01/14 14:09:08;;;;;;;3.70;1.70;;;9.50;99.90;;;;;;6282799;22;20313;-80
2023/01/14 14:12:00;;;;;;;2.28;1.40;;;9.80;99.90;;;;;;6281838;22;20097;-78
2023/01/14 14:14:38;;;;;;;1.98;1.52;;;9.90;99.90;;;;;;6255414;22;20022;-78
2023/01/14 14:17:16;;;;;;;2.13;1.40;;;10.00;99.90;;;;;;6282807;22;20011;-79
2023/01/14 14:19:52;;;;;;;2.55;1.45;;;9.70;99.90;;;;;;6256689;22;20019;-77
2023/01/14 14:22:34;;;;;;;1.40;1.20;;;9.70;99.90;;;;;;6282484;22;20333;-76
2023/01/14 14:25:06;;;;;;;2.05;1.50;;;9.80;99.90;;;;;;6283293;22;20014;-76
2023/01/14 14:27:46;;;;;;;1.48;1.25;;;10.10;99.90;;;;;;6284399;22;20058;-77
2023/01/14 14:30:32;;;;;;;1.30;1.20;;;9.90;99.90;;;;;;6284526;22;20014;-77
2023/01/14 14:32:58;;;;;;;1.65;1.23;;;9.90;99.90;;;;;;6283397;22;20018;-76
2023/01/14 14:35:24;;;;;;;1.77;1.23;;;10.20;99.90;;;;;;6284477;22;20066;-77
2023/01/14 14:37:54;;;;;;;3.10;1.38;;;10.20;99.90;;;;;;6256960;22;20320;-76
2023/01/14 14:40:27;;;;;;;1.48;1.33;;;10.30;99.90;;;;;;6282433;22;20018;-76
2023/01/14 14:42:54;;;;;;;2.10;1.40;;;10.10;99.90;;;;;;6256444;22;20030;-76
2023/01/14 14:45:35;;;;;;;2.63;1.38;;;10.00;99.90;;;;;;6256104;22;20026;-77
2023/01/14 14:48:17;;;;;;;2.55;1.20;;;10.00;99.90;;;;;;6284114;22;20108;-77
2023/01/14 14:50:43;;;;;;;1.63;1.35;;;10.40;99.90;;;;;;6258100;22;20478;-78
2023/01/14 14:53:31;;;;;;;1.45;1.30;;;10.20;99.90;;;;;;6232796;22;20012;-78
2023/01/14 14:56:01;;;;;;;3.75;2.10;;;10.40;99.90;;;;;;6257074;22;20011;-78
2023/01/14 14:58:27;;;;;;;2.03;1.60;;;10.20;99.90;;;;;;6258478;22;20019;-79
2023/01/14 15:01:04;;;;;;;2.30;1.35;;;10.30;99.90;;;;;;6232660;22;20263;-79
2023/01/14 15:03:33;;;;;;;2.05;1.65;;;10.20;99.90;;;;;;6284562;22;20010;-78
2023/01/14 15:06:02;;;;;;;2.42;1.52;;;10.30;99.90;;;;;;6283500;22;20049;-77
2023/01/14 15:08:34;;;;;;;4.55;1.90;;;10.20;99.90;;;;;;6258411;22;20014;-79